createdAt,value
2022-11-25T00:01:18.905Z,100.00
2022-11-25T00:03:46.421Z,100.00
2022-11-25T00:06:12.982Z,100.00
2022-11-25T00:08:43.572Z,100.00
2022-11-25T00:11:11.186Z,100.00
2022-11-25T00:13:41.072Z,100.00
2022-11-25T00:16:14.754Z,100.00
2022-11-25T00:18:45.269Z,100.00
2022-11-25T00:21:14.519Z,100.00
2022-11-25T00:23:46.026Z,100.00
2022-11-25T00:26:14.803Z,100.00
2022-11-25T00:28:43.172Z,100.00
2022-11-25T00:31:15.903Z,100.00
2022-11-25T00:33:43.370Z,100.00
2022-11-25T00:36:32.631Z,100.00
2022-11-25T00:39:04.501Z,100.00
2022-11-25T00:41:52.058Z,100.00
2022-11-25T00:44:36.094Z,100.00
2022-11-25T00:47:09.754Z,100.00
2022-11-25T00:49:37.598Z,100.00
2022-11-25T00:52:05.080Z,100.00
2022-11-25T00:54:35.693Z,100.00
2022-11-25T00:57:02.538Z,100.00
2022-11-25T00:59:30.453Z,100.00
2022-11-25T01:02:09.898Z,100.00
2022-11-25T01:04:36.998Z,100.00
2022-11-25T01:07:04.013Z,100.00
2022-11-25T01:09:35.606Z,100.00
2022-11-25T01:12:04.055Z,100.00
2022-11-25T01:14:30.860Z,100.00
2022-11-25T01:16:57.570Z,100.00
2022-11-25T01:19:27.518Z,100.00
2022-11-25T01:21:54.243Z,100.00
2022-11-25T01:24:20.865Z,100.00
2022-11-25T01:26:47.522Z,100.00
2022-11-25T01:29:17.016Z,100.00
2022-11-25T01:31:46.885Z,100.00
2022-11-25T01:34:27.498Z,100.00
2022-11-25T01:37:05.926Z,100.00
2022-11-25T01:39:43.758Z,100.00
2022-11-25T01:42:10.390Z,100.00
2022-11-25T01:44:39.413Z,100.00
2022-11-25T01:47:19.267Z,100.00
2022-11-25T01:50:04.282Z,100.00
2022-11-25T01:52:40.674Z,100.00
2022-11-25T01:55:29.800Z,97.38
2022-11-25T01:58:20.699Z,87.27
2022-11-25T02:00:51.417Z,79.49
2022-11-25T02:03:40.869Z,66.48
2022-11-25T02:06:20.944Z,58.19
2022-11-25T02:08:52.273Z,53.72
2022-11-25T02:11:19.661Z,50.18
2022-11-25T02:13:49.606Z,47.64
2022-11-25T02:16:16.327Z,44.89
2022-11-25T02:18:43.268Z,44.08
2022-11-25T02:21:10.094Z,42.04
2022-11-25T02:23:42.681Z,40.43
2022-11-25T02:26:12.926Z,38.94
2022-11-25T02:28:40.099Z,38.20
2022-11-25T02:31:07.897Z,37.04
2022-11-25T02:33:38.765Z,35.76
2022-11-25T02:36:10.912Z,33.98
2022-11-25T02:38:47.083Z,32.51
2022-11-25T02:41:19.062Z,31.45
2022-11-25T02:43:52.741Z,30.06
2022-11-25T02:46:23.289Z,28.17
2022-11-25T02:51:44.436Z,26.26
2022-11-25T02:54:12.572Z,25.61
2022-11-25T02:56:40.245Z,23.83
2022-11-25T02:59:08.452Z,22.84
2022-11-25T03:01:38.872Z,21.76
2022-11-25T03:04:07.686Z,21.51
2022-11-25T03:06:35.192Z,20.40
2022-11-25T03:09:01.943Z,19.02
2022-11-25T03:11:48.321Z,18.14
2022-11-25T03:14:19.127Z,15.82
2022-11-25T03:16:45.958Z,14.39
2022-11-25T03:19:12.591Z,12.03
2022-11-25T03:21:39.236Z,9.24
2022-11-25T03:24:06.285Z,6.30
2022-11-25T03:26:32.935Z,5.15
2022-11-25T03:28:59.617Z,2.18
2022-11-25T03:31:27.259Z,0.00
2022-11-25T03:33:55.568Z,0.00
2022-11-25T03:36:23.231Z,0.00
2022-11-25T03:38:57.347Z,0.00
2022-11-25T03:41:24.121Z,0.00
2022-11-25T03:43:50.771Z,0.00
2022-11-25T03:46:17.486Z,0.00
2022-11-25T03:48:47.132Z,0.00
2022-11-25T03:51:13.777Z,0.00
2022-11-25T03:53:42.906Z,0.00
2022-11-25T03:56:10.080Z,0.00
2022-11-25T03:58:36.742Z,0.00
2022-11-25T04:01:12.261Z,0.00
2022-11-25T04:03:41.357Z,0.00
2022-11-25T04:06:10.391Z,0.00
2022-11-25T04:08:42.133Z,0.00
2022-11-25T04:11:13.197Z,0.00
2022-11-25T04:13:49.626Z,0.00
2022-11-25T04:16:23.853Z,0.00
2022-11-25T04:18:51.924Z,0.00
2022-11-25T04:21:18.627Z,0.00
2022-11-25T04:23:45.306Z,0.00
2022-11-25T04:26:13.671Z,0.00
2022-11-25T04:28:40.738Z,0.00
2022-11-25T04:31:13.357Z,0.00
2022-11-25T04:33:42.394Z,0.00
2022-11-25T04:36:10.423Z,0.00
2022-11-25T04:38:39.938Z,0.00
2022-11-25T04:41:07.936Z,0.00
2022-11-25T04:43:39.432Z,0.00
2022-11-25T04:46:17.160Z,0.00
2022-11-25T04:48:48.005Z,0.00
2022-11-25T04:51:15.675Z,0.00
2022-11-25T04:53:44.025Z,0.00
2022-11-25T04:56:17.712Z,0.00
2022-11-25T04:59:04.442Z,0.00
2022-11-25T05:01:36.538Z,0.00
2022-11-25T05:04:15.826Z,0.00
2022-11-25T05:06:42.437Z,0.00
2022-11-25T05:09:11.215Z,0.00
2022-11-25T05:11:40.028Z,0.00
2022-11-25T05:14:11.222Z,0.00
2022-11-25T05:16:38.921Z,0.00
2022-11-25T05:19:06.192Z,0.00
2022-11-25T05:21:33.437Z,0.00
2022-11-25T05:24:00.030Z,0.00
2022-11-25T05:26:29.773Z,0.00
2022-11-25T05:28:59.216Z,0.00
2022-11-25T05:31:25.945Z,0.00
2022-11-25T05:33:53.410Z,0.00
2022-11-25T05:36:20.977Z,0.00
2022-11-25T05:38:48.424Z,0.00
2022-11-25T05:41:35.085Z,0.00
2022-11-25T05:44:02.016Z,0.00
2022-11-25T05:46:29.238Z,0.00
2022-11-25T05:48:56.483Z,0.00
2022-11-25T05:51:25.169Z,0.00
2022-11-25T05:53:53.370Z,0.00
2022-11-25T05:56:23.741Z,0.00
2022-11-25T05:59:09.168Z,0.00
2022-11-25T06:01:54.546Z,0.00
2022-11-25T06:04:21.296Z,0.00
2022-11-25T06:06:50.485Z,0.00
2022-11-25T06:09:17.231Z,0.00
2022-11-25T06:11:43.928Z,0.00
2022-11-25T06:14:10.634Z,0.00
2022-11-25T06:16:37.763Z,0.00
2022-11-25T06:19:17.294Z,0.00
2022-11-25T06:21:46.057Z,0.00
2022-11-25T06:24:15.760Z,0.00
2022-11-25T06:26:44.644Z,0.00
2022-11-25T06:29:11.253Z,0.00
2022-11-25T06:31:40.179Z,0.00
2022-11-25T06:34:27.823Z,0.00
2022-11-25T06:37:02.122Z,0.00
2022-11-25T06:39:34.808Z,0.00
2022-11-25T06:42:04.059Z,0.00
2022-11-25T06:44:34.892Z,0.00
2022-11-25T06:47:18.215Z,0.00
2022-11-25T06:49:49.393Z,0.00
2022-11-25T06:52:16.173Z,0.00
2022-11-25T06:54:43.150Z,0.00
2022-11-25T06:57:11.255Z,0.00
2022-11-25T06:59:38.225Z,0.00
2022-11-25T07:02:12.020Z,0.00
2022-11-25T07:04:41.975Z,0.00
2022-11-25T07:07:37.855Z,0.00
2022-11-25T07:10:09.761Z,0.00
2022-11-25T07:12:36.576Z,0.00
2022-11-25T07:17:56.499Z,0.00
2022-11-25T07:20:28.615Z,0.00
2022-11-25T07:22:55.465Z,0.00
2022-11-25T07:25:30.561Z,0.00
2022-11-25T07:27:57.598Z,0.00
2022-11-25T07:33:11.088Z,0.00
2022-11-25T07:35:43.506Z,0.00
2022-11-25T07:38:10.562Z,0.00
2022-11-25T07:40:39.796Z,0.00
2022-11-25T07:43:14.790Z,0.00
2022-11-25T07:49:39.746Z,0.00
2022-11-25T07:52:06.877Z,0.00
2022-11-25T07:54:33.703Z,0.00
2022-11-25T07:57:06.824Z,0.00
2022-11-25T07:59:43.754Z,0.00
2022-11-25T08:02:20.692Z,0.00
2022-11-25T08:04:47.611Z,0.00
2022-11-25T08:07:14.419Z,0.00
2022-11-25T08:09:41.344Z,0.00
2022-11-25T08:12:18.314Z,0.00
2022-11-25T08:14:52.370Z,0.00
2022-11-25T08:20:29.573Z,0.00
2022-11-25T08:22:59.613Z,0.00
2022-11-25T08:25:47.456Z,0.00
2022-11-25T08:28:19.712Z,0.00
2022-11-25T08:30:46.496Z,0.00
2022-11-25T08:33:13.155Z,0.00
2022-11-25T08:35:46.411Z,0.00
2022-11-25T08:38:16.854Z,0.00
2022-11-25T08:40:47.344Z,0.00
2022-11-25T08:43:42.845Z,0.00
2022-11-25T08:46:24.622Z,0.00
2022-11-25T08:52:21.878Z,0.00
2022-11-25T08:55:50.519Z,0.00
2022-11-25T08:58:27.884Z,0.00
2022-11-25T09:01:05.033Z,0.00
2022-11-25T09:04:03.079Z,0.00
2022-11-25T09:06:36.021Z,0.00
2022-11-25T09:09:30.605Z,0.00
2022-11-25T09:12:00.971Z,0.00
2022-11-25T09:14:35.559Z,0.00
2022-11-25T09:17:32.103Z,0.00
2022-11-25T09:24:01.436Z,0.00
2022-11-25T09:26:42.350Z,0.00
2022-11-25T09:29:09.936Z,0.00
2022-11-25T09:31:36.791Z,0.00
2022-11-25T09:34:13.698Z,0.00
2022-11-25T09:36:45.253Z,0.00
2022-11-25T09:39:37.400Z,0.00
2022-11-25T09:43:13.632Z,0.00
2022-11-25T09:58:32.903Z,0.00
2022-11-25T10:01:37.039Z,0.00
2022-11-25T10:08:45.436Z,0.00
2022-11-25T10:11:45.027Z,0.00
2022-11-25T10:14:20.157Z,0.00
2022-11-25T10:20:40.458Z,0.00
2022-11-25T10:23:27.609Z,0.00
2022-11-25T10:26:37.754Z,0.00
2022-11-25T10:29:37.506Z,0.00
2022-11-25T10:32:25.612Z,0.00
2022-11-25T10:34:58.005Z,0.00
2022-11-25T10:37:34.506Z,0.00
2022-11-25T10:40:10.635Z,0.00
2022-11-25T10:43:12.040Z,0.00
2022-11-25T10:45:55.650Z,0.00
2022-11-25T10:48:45.810Z,0.00
2022-11-25T10:51:34.305Z,0.00
2022-11-25T10:55:21.989Z,0.00
2022-11-25T11:01:27.791Z,0.00
2022-11-25T11:04:15.129Z,0.00
2022-11-25T11:06:46.276Z,0.00
2022-11-25T11:09:39.016Z,0.00
2022-11-25T11:12:23.781Z,0.00
2022-11-25T11:14:51.497Z,0.00
2022-11-25T11:17:37.446Z,0.00
2022-11-25T11:20:07.370Z,0.00
2022-11-25T11:22:47.693Z,0.00
2022-11-25T11:25:27.887Z,0.00
2022-11-25T11:28:04.470Z,0.00
2022-11-25T11:30:58.794Z,0.00
2022-11-25T11:37:16.803Z,0.00
2022-11-25T11:40:32.715Z,0.00
2022-11-25T11:43:14.599Z,0.00
2022-11-25T11:46:17.705Z,0.00
2022-11-25T11:49:18.907Z,0.00
2022-11-25T11:51:48.573Z,0.00
2022-11-25T11:54:44.588Z,0.00
2022-11-25T11:57:37.435Z,0.00
2022-11-25T12:00:15.346Z,0.00
2022-11-25T12:03:02.654Z,0.00
2022-11-25T12:05:37.178Z,0.00
2022-11-25T12:08:16.437Z,0.00
2022-11-25T12:10:47.456Z,0.00
2022-11-25T12:13:30.595Z,0.00
2022-11-25T12:16:01.138Z,0.00
2022-11-25T12:18:49.914Z,0.00
2022-11-25T12:21:36.252Z,0.00
2022-11-25T12:24:18.129Z,0.00
2022-11-25T12:27:02.510Z,0.00
2022-11-25T12:29:49.486Z,0.00
2022-11-25T12:32:31.665Z,0.00
2022-11-25T12:35:10.759Z,0.00
2022-11-25T12:38:04.931Z,0.00
2022-11-25T12:41:16.079Z,0.00
2022-11-25T12:43:52.901Z,0.00
2022-11-25T12:46:25.913Z,0.00
2022-11-25T12:48:54.020Z,0.00
2022-11-25T12:51:48.832Z,0.00
2022-11-25T12:54:30.514Z,0.00
2022-11-25T12:56:57.005Z,0.00
2022-11-25T12:59:41.798Z,0.00
2022-11-25T13:02:40.657Z,0.00
2022-11-25T13:05:44.957Z,0.00
2022-11-25T13:08:36.513Z,0.00
2022-11-25T13:11:34.480Z,0.00
2022-11-25T13:14:17.624Z,0.00
2022-11-25T13:16:46.155Z,0.00
2022-11-25T13:19:24.369Z,0.00
2022-11-25T13:22:20.291Z,0.00
2022-11-25T13:24:49.301Z,0.00
2022-11-25T13:27:54.111Z,0.00
2022-11-25T13:30:32.788Z,0.00
2022-11-25T13:33:11.743Z,0.00
2022-11-25T13:35:48.497Z,0.00
2022-11-25T13:38:30.523Z,0.00
2022-11-25T13:41:24.440Z,0.00
2022-11-25T13:44:12.813Z,0.00
2022-11-25T13:46:43.586Z,0.00
2022-11-25T13:49:36.339Z,0.00
2022-11-25T13:52:12.154Z,0.00
2022-11-25T13:54:53.996Z,0.00
2022-11-25T13:57:29.235Z,0.00
2022-11-25T14:00:04.637Z,0.00
2022-11-25T14:02:45.351Z,0.00
2022-11-25T14:05:49.749Z,0.00
2022-11-25T14:08:37.781Z,0.00
2022-11-25T14:11:14.732Z,0.00
2022-11-25T14:13:48.219Z,0.00
2022-11-25T14:16:33.203Z,0.00
2022-11-25T14:22:51.666Z,0.00
2022-11-25T14:25:23.473Z,0.00
2022-11-25T14:27:52.687Z,0.00
2022-11-25T14:30:23.876Z,0.00
2022-11-25T14:32:58.464Z,0.00
2022-11-25T14:35:33.853Z,0.00
2022-11-25T14:38:04.242Z,0.00
2022-11-25T14:41:01.566Z,0.00
2022-11-25T14:43:29.518Z,0.00
2022-11-25T14:46:28.873Z,0.00
2022-11-25T14:48:57.795Z,0.00
2022-11-25T14:51:26.145Z,0.00
2022-11-25T14:53:53.194Z,0.00
2022-11-25T14:56:27.888Z,0.00
2022-11-25T14:58:56.265Z,0.00
2022-11-25T15:01:34.107Z,0.00
2022-11-25T15:04:24.079Z,0.00
2022-11-25T15:06:57.723Z,0.00
2022-11-25T15:09:27.275Z,0.00
2022-11-25T15:12:08.199Z,0.00
2022-11-25T15:14:36.483Z,0.00
2022-11-25T15:17:19.458Z,0.00
2022-11-25T15:19:46.296Z,0.00
2022-11-25T15:22:24.252Z,0.00
2022-11-25T15:24:55.653Z,0.00
2022-11-25T15:27:26.858Z,0.00
2022-11-25T15:30:01.401Z,0.00
2022-11-25T15:32:41.847Z,0.00
2022-11-25T15:35:26.296Z,0.00
2022-11-25T15:37:54.375Z,0.00
2022-11-25T15:40:50.653Z,0.00
2022-11-25T15:43:35.392Z,0.00
2022-11-25T15:46:04.022Z,0.00
2022-11-25T15:48:48.193Z,0.00
2022-11-25T15:51:34.543Z,0.00
2022-11-25T15:54:13.362Z,0.00
2022-11-25T15:56:49.245Z,0.00
2022-11-25T15:59:47.100Z,0.00
2022-11-25T16:02:35.953Z,0.00
2022-11-25T16:05:14.904Z,0.00
2022-11-25T16:07:53.360Z,0.00
2022-11-25T16:10:33.269Z,0.00
2022-11-25T16:13:25.878Z,0.00
2022-11-25T16:15:57.887Z,0.00
2022-11-25T16:18:46.672Z,0.00
2022-11-25T16:21:26.483Z,0.00
2022-11-25T16:24:16.409Z,0.00
2022-11-25T16:27:07.100Z,0.00
2022-11-25T16:29:39.465Z,0.00
2022-11-25T16:32:14.770Z,0.00
2022-11-25T16:34:42.114Z,0.00
2022-11-25T16:37:09.099Z,0.00
2022-11-25T16:39:37.241Z,0.00
2022-11-25T16:42:04.708Z,0.00
2022-11-25T16:44:33.428Z,0.00
2022-11-25T16:47:03.842Z,0.00
2022-11-25T16:49:33.031Z,0.00
2022-11-25T16:52:00.667Z,0.00
2022-11-25T16:54:29.801Z,0.00
2022-11-25T16:56:57.588Z,0.00
2022-11-25T16:59:27.450Z,0.00
2022-11-25T17:01:54.235Z,0.00
2022-11-25T17:04:21.450Z,0.00
2022-11-25T17:07:09.820Z,0.00
2022-11-25T17:09:36.298Z,0.00
2022-11-25T17:12:04.717Z,0.00
2022-11-25T17:14:34.673Z,0.00
2022-11-25T17:17:05.707Z,0.00
2022-11-25T17:19:36.497Z,0.00
2022-11-25T17:22:04.538Z,0.00
2022-11-25T17:24:42.430Z,0.00
2022-11-25T17:27:32.261Z,0.00
2022-11-25T17:30:11.325Z,0.00
2022-11-25T17:32:44.074Z,0.00
2022-11-25T17:36:05.782Z,0.00
2022-11-25T17:39:24.415Z,0.00
2022-11-25T17:41:51.810Z,0.00
2022-11-25T17:44:26.648Z,0.00
2022-11-25T17:46:58.181Z,0.00
2022-11-25T17:49:25.581Z,0.00
2022-11-25T17:51:52.806Z,0.00
2022-11-25T17:54:19.562Z,0.00
2022-11-25T17:56:52.304Z,0.00
2022-11-25T17:59:27.294Z,0.00
2022-11-25T18:01:56.132Z,0.00
2022-11-25T18:04:24.418Z,0.00
2022-11-25T18:06:51.604Z,0.00
2022-11-25T18:09:19.036Z,0.00
2022-11-25T18:12:09.911Z,0.00
2022-11-25T18:14:37.326Z,0.00
2022-11-25T18:17:07.872Z,0.00
2022-11-25T18:19:35.260Z,0.00
2022-11-25T18:22:19.061Z,0.00
2022-11-25T18:24:47.508Z,0.00
2022-11-25T18:27:29.290Z,0.00
2022-11-25T18:29:57.283Z,0.00
2022-11-25T18:32:25.322Z,0.00
2022-11-25T18:34:52.664Z,0.00
2022-11-25T18:37:19.678Z,0.00
2022-11-25T18:39:49.679Z,0.00
2022-11-25T18:42:24.863Z,0.00
2022-11-25T18:44:51.869Z,0.00
2022-11-25T18:47:21.094Z,0.00
2022-11-25T18:49:56.502Z,0.00
2022-11-25T18:52:24.876Z,0.00
2022-11-25T18:54:55.686Z,0.00
2022-11-25T18:57:23.480Z,0.00
2022-11-25T19:00:17.035Z,0.00
2022-11-25T19:02:38.030Z,0.00
2022-11-25T19:05:29.349Z,0.00
2022-11-25T19:07:57.683Z,0.00
2022-11-25T19:10:32.376Z,0.00
2022-11-25T19:13:01.886Z,0.00
2022-11-25T19:15:30.170Z,0.00
2022-11-25T19:18:00.686Z,0.00
2022-11-25T19:20:28.581Z,0.00
2022-11-25T19:23:22.796Z,0.00
2022-11-25T19:25:49.581Z,0.00
2022-11-25T19:31:06.574Z,0.00
2022-11-25T19:34:49.362Z,0.00
2022-11-25T19:37:17.720Z,0.00
2022-11-25T19:39:44.434Z,0.00
2022-11-25T19:42:11.294Z,0.00
2022-11-25T19:44:38.343Z,0.00
2022-11-25T19:47:15.380Z,0.00
2022-11-25T19:49:43.118Z,0.00
2022-11-25T19:52:31.199Z,0.00
2022-11-25T19:55:01.078Z,0.00
2022-11-25T19:57:28.410Z,0.00
2022-11-25T19:59:54.960Z,0.00
2022-11-25T20:02:23.455Z,0.00
2022-11-25T20:04:52.742Z,0.00
2022-11-25T20:07:20.158Z,0.00
2022-11-25T20:09:51.564Z,0.00
2022-11-25T20:12:21.162Z,0.00
2022-11-25T20:14:48.512Z,0.00
2022-11-25T20:17:29.148Z,0.00
2022-11-25T20:20:09.992Z,0.00
2022-11-25T20:22:37.928Z,0.00
2022-11-25T20:25:07.749Z,0.00
2022-11-25T20:27:34.648Z,0.00
2022-11-25T20:30:01.528Z,0.00
2022-11-25T20:32:35.392Z,0.00
2022-11-25T20:35:04.692Z,0.00
2022-11-25T20:37:40.407Z,0.00
2022-11-25T20:40:14.002Z,0.00
2022-11-25T20:42:40.718Z,0.00
2022-11-25T20:45:15.139Z,0.00
2022-11-25T20:47:42.054Z,0.00
2022-11-25T20:50:10.803Z,0.00
2022-11-25T20:52:38.826Z,0.00
2022-11-25T20:55:16.356Z,0.00
2022-11-25T20:57:43.208Z,0.00
2022-11-25T21:00:36.463Z,0.00
2022-11-25T21:03:03.211Z,0.00
2022-11-25T21:05:29.946Z,0.00
2022-11-25T21:07:56.668Z,0.00
2022-11-25T21:10:33.527Z,0.00
2022-11-25T21:13:00.716Z,0.20
2022-11-25T21:15:29.397Z,0.53
2022-11-25T21:17:57.624Z,1.80
2022-11-25T21:20:26.603Z,3.74
2022-11-25T21:22:56.674Z,5.11
2022-11-25T21:25:24.739Z,7.87
2022-11-25T21:27:52.391Z,9.57
2022-11-25T21:30:21.931Z,9.76
2022-11-25T21:32:51.257Z,11.36
2022-11-25T21:35:40.371Z,12.36
2022-11-25T21:38:16.022Z,13.71
2022-11-25T21:40:45.733Z,16.00
2022-11-25T21:43:21.789Z,16.02
2022-11-25T21:45:50.035Z,17.80
2022-11-25T21:48:20.400Z,17.34
2022-11-25T21:50:47.211Z,18.47
2022-11-25T21:53:14.181Z,20.39
2022-11-25T21:55:41.140Z,20.92
2022-11-25T21:58:19.935Z,20.67
2022-11-25T22:01:00.962Z,22.14
2022-11-25T22:03:30.437Z,22.54
2022-11-25T22:05:57.102Z,25.01
2022-11-25T22:08:24.066Z,26.61
2022-11-25T22:10:52.786Z,27.19
2022-11-25T22:13:25.016Z,27.18
2022-11-25T22:15:55.365Z,26.88
2022-11-25T22:18:29.960Z,26.95
2022-11-25T22:20:56.694Z,28.20
2022-11-25T22:23:23.591Z,28.87
2022-11-25T22:25:50.838Z,29.47
2022-11-25T22:28:27.932Z,31.63
2022-11-25T22:30:58.341Z,32.00
2022-11-25T22:33:51.291Z,31.56
2022-11-25T22:36:50.136Z,33.69
2022-11-25T22:39:16.728Z,34.19
2022-11-25T22:41:48.687Z,34.46
2022-11-25T22:44:34.384Z,33.62
2022-11-25T22:47:04.718Z,33.50
2022-11-25T22:49:38.802Z,33.64
2022-11-25T22:52:06.301Z,35.64
2022-11-25T22:54:32.966Z,35.20
2022-11-25T22:57:00.041Z,35.88
2022-11-25T22:59:26.657Z,37.50
2022-11-25T23:01:53.517Z,36.62
2022-11-25T23:04:20.765Z,38.26
2022-11-25T23:06:47.895Z,37.51
2022-11-25T23:09:17.799Z,39.75
2022-11-25T23:11:53.892Z,38.69
2022-11-25T23:14:20.625Z,40.55
2022-11-25T23:16:47.469Z,40.65
2022-11-25T23:19:39.406Z,41.76
2022-11-25T23:22:10.708Z,43.33
2022-11-25T23:24:40.217Z,43.82
2022-11-25T23:27:06.898Z,44.07
2022-11-25T23:29:35.690Z,46.56
2022-11-25T23:32:07.862Z,44.79
2022-11-25T23:34:36.536Z,46.54
2022-11-25T23:37:29.363Z,48.44
2022-11-25T23:39:56.066Z,49.78
2022-11-25T23:42:22.709Z,50.21
2022-11-25T23:44:49.348Z,51.83
2022-11-25T23:47:23.751Z,51.18
2022-11-25T23:49:52.144Z,53.02
2022-11-25T23:52:24.316Z,54.78
2022-11-25T23:54:54.686Z,56.10
2022-11-25T23:57:23.747Z,59.13
2022-11-25T23:59:51.709Z,62.82
